»·PEaware :: N224LW KSBP-KSMO

N224LW :: KSBP-KSMO

FLIGHT INFORMATION

Flight Status: Arrived
Operator: Privately registered:
United States
More flights under this callsign
Pilot: Rod T. (6553)
Aircraft: CIRRUS SR-22 TURBO
(S22T)
More flights by this aircraft type
Origin: KSBP San Luis Co Regl
United States
Destination: KSMO Santa Monica Mun
United States
More flights between these airports :: More routes between these airports
Route: +RZS V186 DARTS
File this flight plan on PilotEdge
Remarks: TEC Route SBAP47
Altitude:
(Current/Filed)
7,000ft
Speed:
(Current/Filed)
180kts
Departed: 08-Sep-18 07:11 AM
Arrived: 08-Sep-18 08:14 AM
Distance/Time
Traveled:
131nm/1:03
Distance/Time
To Go:
Arrived

Flight Plot

Page will automatically refresh every two minutes.


Map Options




Map Legend


Flown Route
Filed Route
Departure Airport
Arrival Airport
Navaid (VOR, NDB)
Fix

Horizontal Profiles

Position Reports

Time Latitude Longitude Heading Altitude Ground
Speed
08-Sep-18 07:03 35.239086 -120.637076 180 213ft 0kts
08-Sep-18 07:04 35.239086 -120.637076 180 213ft 0kts
08-Sep-18 07:05 35.239086 -120.637076 180 213ft 0kts
08-Sep-18 07:06 35.239086 -120.637076 180 213ft 0kts
08-Sep-18 07:07 35.239086 -120.637076 180 213ft 0kts
08-Sep-18 07:08 35.239086 -120.637076 180 213ft 0kts
08-Sep-18 07:09 35.238785 -120.637153 200 213ft 5kts
08-Sep-18 07:10 35.236200 -120.636868 124 213ft 17kts
08-Sep-18 07:12 35.233283 -120.632237 213 213ft 0kts
08-Sep-18 07:13 35.234175 -120.635246 304 213ft 70kts
08-Sep-18 07:14 35.249160 -120.661490 304 1344ft 105kts
08-Sep-18 07:15 35.268162 -120.695032 304 2417ft 124kts
08-Sep-18 07:16 35.287915 -120.729891 304 3652ft 126kts
08-Sep-18 07:17 35.308059 -120.765439 304 4873ft 128kts
08-Sep-18 07:18 35.319154 -120.803571 228 6046ft 131kts
08-Sep-18 07:19 35.287822 -120.791655 143 7012ft 146kts
08-Sep-18 07:20 35.254287 -120.754619 129 7010ft 171kts
08-Sep-18 07:21 35.222748 -120.711160 132 7006ft 166kts
08-Sep-18 07:22 35.192282 -120.670403 132 7008ft 161kts
08-Sep-18 07:23 35.162012 -120.630006 132 7008ft 161kts
08-Sep-18 07:24 35.131022 -120.588697 132 7009ft 174kts
08-Sep-18 07:25 35.097059 -120.543483 132 7009ft 184kts
08-Sep-18 07:26 35.064484 -120.500175 132 7009ft 185kts
08-Sep-18 07:27 35.027560 -120.451153 132 7008ft 186kts
08-Sep-18 07:28 34.992550 -120.404738 132 7008ft 186kts
08-Sep-18 07:29 34.957503 -120.358337 132 7008ft 186kts
08-Sep-18 07:30 34.922407 -120.311933 132 7008ft 186kts
08-Sep-18 07:31 34.887520 -120.265867 132 7008ft 186kts
08-Sep-18 07:32 34.853598 -120.221137 132 7008ft 186kts
08-Sep-18 07:33 34.818797 -120.175308 132 7008ft 186kts
08-Sep-18 07:34 34.783707 -120.129159 132 7008ft 186kts
08-Sep-18 07:35 34.748945 -120.083504 132 7008ft 186kts
08-Sep-18 07:36 34.713833 -120.037451 132 7008ft 186kts
08-Sep-18 07:37 34.678612 -119.991317 132 7008ft 186kts
08-Sep-18 07:38 34.643297 -119.945122 132 7008ft 186kts
08-Sep-18 07:39 34.608082 -119.899119 132 7008ft 186kts
08-Sep-18 07:40 34.572965 -119.853316 132 7008ft 186kts
08-Sep-18 07:41 34.537685 -119.807343 132 7008ft 186kts
08-Sep-18 07:42 34.503631 -119.760198 123 7009ft 186kts
08-Sep-18 07:43 34.475256 -119.707731 123 7008ft 186kts
08-Sep-18 07:44 34.446865 -119.655394 123 7008ft 186kts
08-Sep-18 07:45 34.427794 -119.599154 97 7009ft 186kts
08-Sep-18 07:46 34.418922 -119.543378 101 7008ft 186kts
08-Sep-18 07:47 34.407899 -119.482354 102 7008ft 186kts
08-Sep-18 07:48 34.396733 -119.420947 102 7008ft 186kts
08-Sep-18 07:49 34.385716 -119.360542 102 7017ft 186kts
08-Sep-18 07:50 34.374508 -119.299254 102 7018ft 186kts
08-Sep-18 07:51 34.363333 -119.238344 102 7018ft 186kts
08-Sep-18 07:52 34.352080 -119.177188 102 7018ft 186kts
08-Sep-18 07:53 34.340792 -119.116028 102 7018ft 186kts
08-Sep-18 07:54 34.329452 -119.054768 102 7018ft 186kts
08-Sep-18 07:55 34.318105 -118.993676 102 7018ft 186kts
08-Sep-18 07:56 34.306244 -118.929954 102 6481ft 199kts
08-Sep-18 07:57 34.293988 -118.864323 102 5882ft 200kts
08-Sep-18 07:58 34.281940 -118.800029 102 5292ft 199kts
08-Sep-18 07:59 34.269932 -118.736140 102 5017ft 188kts
08-Sep-18 08:00 34.258492 -118.675453 102 5018ft 183kts
08-Sep-18 08:01 34.247098 -118.615181 102 5018ft 183kts
08-Sep-18 08:02 34.235792 -118.555550 102 5018ft 183kts
08-Sep-18 08:03 34.224468 -118.495240 101 5018ft 183kts
08-Sep-18 08:04 34.229450 -118.436063 81 5014ft 162kts
08-Sep-18 08:05 34.234748 -118.391206 81 5018ft 129kts
08-Sep-18 08:06 34.225966 -118.352392 131 5019ft 130kts
08-Sep-18 08:07 34.201892 -118.319891 132 5018ft 131kts
08-Sep-18 08:08 34.181417 -118.282761 122 4622ft 131kts
08-Sep-18 08:09 34.148022 -118.281138 191 4318ft 129kts
08-Sep-18 08:10 34.115704 -118.294842 240 4321ft 126kts
08-Sep-18 08:11 34.102620 -118.333704 252 3846ft 110kts
08-Sep-18 08:12 34.087122 -118.365236 227 2763ft 123kts
08-Sep-18 08:13 34.063337 -118.393726 225 1675ft 106kts
08-Sep-18 08:14 34.043936 -118.416992 225 860ft 88kts
08-Sep-18 08:15 34.025170 -118.439797 234 391ft 85kts
08-Sep-18 08:16 34.014094 -118.453775 246 178ft 18kts
08-Sep-18 08:17 34.014174 -118.454797 116 178ft 0kts
08-Sep-18 08:18 34.014174 -118.454797 116 178ft 0kts
08-Sep-18 08:19 34.014174 -118.454797 116 178ft 0kts
08-Sep-18 08:20 34.014174 -118.454797 116 178ft 0kts
08-Sep-18 08:21 34.014174 -118.454797 116 178ft 0kts
08-Sep-18 08:22 34.014174 -118.454797 116 178ft 0kts
08-Sep-18 08:23 34.014174 -118.454797 116 178ft 0kts
08-Sep-18 08:24 34.014174 -118.454797 116 178ft 0kts
08-Sep-18 08:25 34.014174 -118.454797 116 178ft 0kts
08-Sep-18 08:26 34.014174 -118.454797 116 178ft 0kts
08-Sep-18 08:27 34.014174 -118.454797 116 178ft 0kts
08-Sep-18 08:28 34.014174 -118.454797 116 178ft 0kts
08-Sep-18 08:29 34.014174 -118.454797 116 178ft 0kts
08-Sep-18 08:30 34.014174 -118.454797 116 178ft 0kts
08-Sep-18 08:31 34.014174 -118.454797 116 178ft 0kts

Navigation Log

Ident Type
1. KSBP Airport
2. RZS Navaid
3. ZIQOR Fix
4. DEANO Fix
5. HENER Fix
6. FIM Navaid
7. SESPE Fix
8. VNY Navaid
9. DARTS Fix
10. KSMO Airport